createdAt,value
2023-04-15T00:01:53.961Z,71.05
2023-04-15T00:06:57.095Z,71.12
2023-04-15T00:11:59.447Z,71.41
2023-04-15T00:17:03.670Z,71.65
2023-04-15T00:22:05.725Z,71.90
2023-04-15T00:27:09.108Z,72.24
2023-04-15T00:32:11.680Z,72.54
2023-04-15T00:37:15.384Z,72.83
2023-04-15T00:42:18.793Z,73.25
2023-04-15T00:47:22.830Z,73.59
2023-04-15T00:52:26.889Z,73.94
2023-04-15T00:57:28.763Z,74.20
2023-04-15T01:02:32.391Z,74.50
2023-04-15T01:07:35.760Z,74.76
2023-04-15T01:12:39.685Z,74.93
2023-04-15T01:17:44.089Z,75.24
2023-04-15T01:22:46.519Z,75.33
2023-04-15T01:27:48.391Z,75.37
2023-04-15T01:32:51.222Z,75.51
2023-04-15T01:37:59.359Z,75.56
2023-04-15T01:43:03.507Z,75.54
2023-04-15T01:48:06.950Z,75.74
2023-04-15T01:53:09.778Z,75.93
2023-04-15T01:58:13.103Z,76.09
2023-04-15T02:03:16.162Z,76.21
2023-04-15T02:08:19.271Z,76.26
2023-04-15T02:13:22.071Z,76.38
2023-04-15T02:18:26.164Z,76.67
2023-04-15T02:23:31.801Z,76.65
2023-04-15T02:28:34.704Z,76.92
2023-04-15T02:33:37.938Z,76.96
2023-04-15T02:38:42.615Z,77.21
2023-04-15T02:43:47.677Z,77.24
2023-04-15T02:48:54.763Z,77.53
2023-04-15T02:53:58.338Z,77.75
2023-04-15T02:59:00.548Z,77.94
2023-04-15T03:04:04.677Z,78.11
2023-04-15T03:09:07.365Z,78.32
2023-04-15T03:14:09.439Z,78.63
2023-04-15T03:19:12.137Z,78.69
2023-04-15T03:24:16.208Z,78.98
2023-04-15T03:29:18.049Z,79.14
2023-04-15T03:34:20.888Z,79.35
2023-04-15T03:39:24.194Z,79.47
2023-04-15T03:44:28.240Z,79.61
2023-04-15T03:49:31.740Z,79.78
2023-04-15T03:54:34.654Z,79.95
2023-04-15T03:59:36.887Z,80.11
2023-04-15T04:04:39.565Z,80.31
2023-04-15T04:09:45.186Z,80.55
2023-04-15T04:14:50.750Z,80.53
2023-04-15T04:19:53.100Z,80.78
2023-04-15T04:24:56.691Z,81.03
2023-04-15T04:30:00.913Z,81.20
2023-04-15T04:35:04.544Z,81.42
2023-04-15T04:40:10.908Z,81.46
2023-04-15T04:45:13.735Z,81.47
2023-04-15T04:50:17.374Z,81.63
2023-04-15T04:55:19.846Z,81.65
2023-04-15T05:00:23.289Z,81.73
2023-04-15T05:05:27.154Z,81.95
2023-04-15T05:10:29.731Z,82.04
2023-04-15T05:15:34.994Z,82.00
2023-04-15T05:20:37.714Z,82.21
2023-04-15T05:25:41.534Z,82.32
2023-04-15T05:30:44.312Z,82.20
2023-04-15T05:35:48.063Z,82.46
2023-04-15T05:40:50.411Z,82.44
2023-04-15T05:45:54.346Z,82.44
2023-04-15T05:50:57.318Z,82.56
2023-04-15T05:56:01.489Z,82.58
2023-04-15T06:01:04.347Z,82.69
2023-04-15T06:06:10.054Z,82.78
2023-04-15T06:11:14.506Z,82.82
2023-04-15T06:16:17.798Z,82.64
2023-04-15T06:21:23.968Z,82.70
2023-04-15T06:26:28.511Z,82.63
2023-04-15T06:31:31.915Z,82.68
2023-04-15T06:36:34.251Z,82.57
2023-04-15T06:41:40.969Z,82.65
2023-04-15T06:46:44.534Z,82.59
2023-04-15T06:51:47.949Z,82.56
2023-04-15T06:56:51.235Z,82.66
2023-04-15T07:01:54.697Z,82.60
2023-04-15T07:06:57.194Z,82.62
2023-04-15T07:11:59.862Z,82.63
2023-04-15T07:17:02.332Z,82.66
2023-04-15T07:22:04.606Z,82.84
2023-04-15T07:27:07.946Z,82.74
2023-04-15T07:32:11.549Z,82.60
2023-04-15T07:37:16.001Z,82.90
2023-04-15T07:42:20.064Z,82.83
2023-04-15T07:47:23.078Z,82.91
2023-04-15T07:52:24.730Z,82.90
2023-04-15T07:57:27.784Z,83.04
2023-04-15T08:02:30.453Z,83.03
2023-04-15T08:07:33.763Z,83.12
2023-04-15T08:12:36.676Z,83.34
2023-04-15T08:17:38.713Z,83.33
2023-04-15T08:22:41.638Z,83.37
2023-04-15T08:27:46.183Z,83.33
2023-04-15T08:32:51.830Z,83.38
2023-04-15T08:37:54.638Z,83.30
2023-04-15T08:43:00.122Z,83.20
2023-04-15T08:48:06.169Z,83.12
2023-04-15T08:53:11.133Z,83.21
2023-04-15T08:58:15.864Z,83.37
2023-04-15T09:03:19.725Z,83.40
2023-04-15T09:08:24.116Z,83.51
2023-04-15T09:13:26.715Z,83.45
2023-04-15T09:18:34.465Z,83.61
2023-04-15T09:23:40.165Z,83.44
2023-04-15T09:28:46.811Z,83.41
2023-04-15T09:33:56.952Z,83.31
2023-04-15T09:39:01.055Z,82.86
2023-04-15T09:44:04.313Z,82.71
2023-04-15T09:49:11.999Z,82.67
2023-04-15T09:54:22.132Z,82.42
2023-04-15T09:59:25.887Z,82.40
2023-04-15T10:04:32.909Z,82.46
2023-04-15T10:09:38.476Z,82.51
2023-04-15T10:14:44.019Z,82.28
2023-04-15T10:19:48.562Z,82.46
2023-04-15T10:24:52.501Z,82.08
2023-04-15T10:29:58.622Z,81.80
2023-04-15T10:35:02.443Z,81.45
2023-04-15T10:40:27.698Z,81.33
2023-04-15T10:45:39.825Z,81.16
2023-04-15T10:50:58.102Z,80.64
2023-04-15T10:56:02.350Z,81.04
2023-04-15T11:01:05.888Z,81.38
2023-04-15T11:06:09.963Z,81.18
2023-04-15T11:11:16.695Z,80.46
2023-04-15T11:16:20.295Z,80.21
2023-04-15T11:21:27.977Z,80.50
2023-04-15T11:26:32.328Z,80.60
2023-04-15T11:31:37.902Z,80.25
2023-04-15T11:36:44.034Z,79.36
2023-04-15T11:41:47.264Z,78.13
2023-04-15T11:46:51.491Z,77.48
2023-04-15T11:51:55.385Z,77.78
2023-04-15T11:57:00.056Z,77.46
2023-04-15T12:02:13.004Z,77.68
2023-04-15T12:07:17.373Z,78.28
2023-04-15T12:12:20.300Z,78.27
2023-04-15T12:17:25.334Z,78.15
2023-04-15T12:22:28.051Z,78.03
2023-04-15T12:27:31.887Z,77.86
2023-04-15T12:32:37.041Z,77.30
2023-04-15T12:37:39.168Z,77.36
2023-04-15T12:42:41.065Z,77.88
2023-04-15T12:47:43.973Z,77.84
2023-04-15T12:52:47.188Z,77.76
2023-04-15T12:57:49.527Z,77.72
2023-04-15T13:02:51.693Z,77.57
2023-04-15T13:07:54.066Z,77.48
2023-04-15T13:12:56.682Z,77.29
2023-04-15T13:17:59.332Z,77.02
2023-04-15T13:23:17.883Z,76.82
2023-04-15T13:28:20.192Z,76.79
2023-04-15T13:33:23.186Z,76.51
2023-04-15T13:38:25.637Z,76.60
2023-04-15T13:43:28.384Z,76.29
2023-04-15T13:48:30.435Z,75.99
2023-04-15T13:53:37.815Z,76.02
2023-04-15T13:58:41.500Z,76.26
2023-04-15T14:03:44.165Z,76.53
2023-04-15T14:08:46.430Z,76.68
2023-04-15T14:13:49.409Z,76.48
2023-04-15T14:18:52.376Z,76.75
2023-04-15T14:23:54.850Z,76.96
2023-04-15T14:28:56.987Z,76.99
2023-04-15T14:33:59.215Z,77.39
2023-04-15T14:39:04.947Z,77.20
2023-04-15T14:44:11.497Z,77.22
2023-04-15T14:49:14.579Z,77.68
2023-04-15T14:54:17.601Z,77.78
2023-04-15T14:59:19.794Z,77.60
2023-04-15T15:04:22.913Z,77.80
2023-04-15T15:09:26.713Z,77.91
2023-04-15T15:14:31.498Z,78.14
2023-04-15T15:19:34.803Z,78.12
2023-04-15T15:24:38.876Z,78.42
2023-04-15T15:29:43.020Z,78.66
2023-04-15T15:34:46.177Z,78.89
2023-04-15T15:39:53.169Z,78.96
2023-04-15T15:44:56.363Z,79.11
2023-04-15T15:50:02.604Z,79.32
2023-04-15T15:55:07.849Z,79.18
2023-04-15T16:00:12.836Z,79.34
2023-04-15T16:05:15.908Z,79.59
2023-04-15T16:10:18.337Z,79.66
2023-04-15T16:15:20.571Z,80.07
2023-04-15T16:20:24.566Z,80.17
2023-04-15T16:25:26.809Z,80.31
2023-04-15T16:30:29.171Z,80.37
2023-04-15T16:35:32.759Z,80.44
2023-04-15T16:40:37.418Z,80.84
2023-04-15T16:45:40.146Z,81.04
2023-04-15T16:50:46.397Z,81.04
2023-04-15T16:55:49.269Z,81.32
2023-04-15T17:00:52.876Z,81.60
2023-04-15T17:05:55.558Z,81.86
2023-04-15T17:10:57.845Z,81.68
2023-04-15T17:16:01.894Z,81.96
2023-04-15T17:21:06.095Z,82.17
2023-04-15T17:26:08.923Z,82.24
2023-04-15T17:31:11.789Z,82.31
2023-04-15T17:36:15.245Z,82.33
2023-04-15T17:41:18.540Z,82.43
2023-04-15T17:46:23.342Z,82.25
2023-04-15T17:51:26.100Z,82.17
2023-04-15T17:56:29.329Z,82.09
2023-04-15T18:01:31.641Z,81.97
2023-04-15T18:06:35.303Z,82.09
2023-04-15T18:11:40.345Z,82.15
2023-04-15T18:16:43.726Z,82.26
2023-04-15T18:21:49.317Z,82.59
2023-04-15T18:26:52.923Z,82.54
2023-04-15T18:31:58.865Z,82.61
2023-04-15T18:37:01.985Z,83.13
2023-04-15T18:42:04.490Z,83.19
2023-04-15T18:47:07.531Z,83.04
2023-04-15T18:52:11.448Z,83.24
2023-04-15T18:57:13.924Z,83.47
2023-04-15T19:02:27.703Z,83.91
2023-04-15T19:07:31.025Z,84.04
2023-04-15T19:12:33.759Z,84.23
2023-04-15T19:17:35.969Z,84.34
2023-04-15T19:22:38.992Z,84.29
2023-04-15T19:27:41.245Z,84.26
2023-04-15T19:32:43.573Z,84.44
2023-04-15T19:37:48.583Z,84.52
2023-04-15T19:42:51.475Z,84.43
2023-04-15T19:47:54.680Z,84.51
2023-04-15T19:52:57.022Z,84.14
2023-04-15T19:57:59.645Z,84.23
2023-04-15T20:03:01.735Z,84.04
2023-04-15T20:08:04.165Z,83.88
2023-04-15T20:13:06.240Z,83.30
2023-04-15T20:18:08.699Z,83.21
2023-04-15T20:23:11.176Z,83.18
2023-04-15T20:28:15.552Z,82.99
2023-04-15T20:33:17.489Z,83.06
2023-04-15T20:38:21.560Z,83.12
2023-04-15T20:43:27.428Z,83.03
2023-04-15T20:48:31.467Z,83.14
2023-04-15T20:53:35.197Z,83.57
2023-04-15T20:58:39.337Z,83.76
2023-04-15T21:03:42.991Z,83.81
2023-04-15T21:08:46.203Z,83.96
2023-04-15T21:13:51.064Z,84.09
2023-04-15T21:18:54.750Z,84.16
2023-04-15T21:24:00.938Z,84.27
2023-04-15T21:29:03.610Z,84.29
2023-04-15T21:34:07.924Z,84.53
2023-04-15T21:39:12.219Z,84.48
2023-04-15T21:44:15.926Z,84.90
2023-04-15T21:49:20.747Z,84.92
2023-04-15T21:54:24.432Z,84.91
2023-04-15T21:59:28.978Z,84.90
2023-04-15T22:04:32.042Z,85.04
2023-04-15T22:09:35.305Z,85.22
2023-04-15T22:14:39.401Z,85.16
2023-04-15T22:19:42.699Z,84.80
2023-04-15T22:24:45.843Z,84.97
2023-04-15T22:29:48.198Z,85.02
2023-04-15T22:34:51.647Z,85.09
2023-04-15T22:39:56.889Z,84.92
2023-04-15T22:44:59.822Z,84.83
2023-04-15T22:50:04.514Z,84.93
2023-04-15T22:55:09.192Z,84.95
2023-04-15T23:00:12.373Z,84.94
2023-04-15T23:05:15.430Z,84.75
2023-04-15T23:10:19.666Z,85.00
2023-04-15T23:15:24.967Z,84.99
2023-04-15T23:20:28.112Z,85.09
2023-04-15T23:25:30.065Z,85.02
2023-04-15T23:30:37.010Z,84.97
2023-04-15T23:35:39.984Z,84.94
2023-04-15T23:40:43.467Z,85.08
2023-04-15T23:45:46.318Z,84.79
2023-04-15T23:50:50.534Z,84.74
2023-04-15T23:55:54.383Z,84.85
